Terminal Aerodrome Forecast
Issued by NWS

Home | Current Version | Previous Version | Text Only | Print | Product List | Glossary On
Versions: 1 2 3 4 5 6 7 8 9 10 11 12 13 14
201
FTUS44 KLZK 111727
TAFADF
TAF
KADF 111727Z 1118/1218 03008KT P6SM SKC
     FM120300 09005KT P6SM SCT150=

USA.gov is the U.S. government's official web portal to all federal, state and local government web resources and services.